createdAt,value
2022-10-15T00:00:52.927Z,2.10
2022-10-15T00:03:55.805Z,3.03
2022-10-15T00:06:59.057Z,2.77
2022-10-15T00:10:02.116Z,2.97
2022-10-15T00:13:06.533Z,3.03
2022-10-15T00:16:14.181Z,2.47
2022-10-15T00:19:17.218Z,2.50
2022-10-15T00:22:20.218Z,2.73
2022-10-15T00:25:23.715Z,2.50
2022-10-15T00:28:30.590Z,3.10
2022-10-15T00:31:37.617Z,2.50
2022-10-15T00:34:40.329Z,2.63
2022-10-15T00:37:44.098Z,2.77
2022-10-15T00:40:46.832Z,2.40
2022-10-15T00:43:51.651Z,2.40
2022-10-15T00:46:59.181Z,2.27
2022-10-15T00:50:06.384Z,2.20
2022-10-15T00:53:10.891Z,1.97
2022-10-15T00:56:14.713Z,2.30
2022-10-15T00:59:21.954Z,2.40
2022-10-15T01:02:26.381Z,2.53
2022-10-15T01:05:30.135Z,2.40
2022-10-15T01:08:32.998Z,2.30
2022-10-15T01:11:41.877Z,2.27
2022-10-15T01:14:52.538Z,2.43
2022-10-15T01:18:00.045Z,2.37
2022-10-15T01:21:10.316Z,2.10
2022-10-15T01:24:43.968Z,2.50
2022-10-15T01:27:52.254Z,2.53
2022-10-15T01:31:01.540Z,2.83
2022-10-15T01:34:14.973Z,2.37
2022-10-15T01:37:27.038Z,2.33
2022-10-15T01:40:36.197Z,2.73
2022-10-15T01:43:45.776Z,2.10
2022-10-15T01:46:54.901Z,2.70
2022-10-15T01:50:02.544Z,3.03
2022-10-15T01:53:09.562Z,2.97
2022-10-15T01:56:19.229Z,2.77
2022-10-15T01:59:25.622Z,2.77
2022-10-15T02:02:30.013Z,3.10
2022-10-15T02:05:39.134Z,2.90
2022-10-15T02:08:49.936Z,2.77
2022-10-15T02:12:01.265Z,3.47
2022-10-15T02:15:11.125Z,2.47
2022-10-15T02:18:22.641Z,3.07
2022-10-15T02:21:32.872Z,2.77
2022-10-15T02:24:40.490Z,2.83
2022-10-15T02:27:46.771Z,2.60
2022-10-15T02:30:53.816Z,2.57
2022-10-15T02:34:03.352Z,3.10
2022-10-15T02:37:08.152Z,2.53
2022-10-15T02:40:12.039Z,2.80
2022-10-15T02:43:16.272Z,2.67
2022-10-15T02:46:21.257Z,2.63
2022-10-15T02:49:25.275Z,2.93
2022-10-15T02:52:28.331Z,3.03
2022-10-15T02:55:31.108Z,2.70
2022-10-15T02:58:34.642Z,2.60
2022-10-15T03:01:37.344Z,2.70
2022-10-15T03:04:41.929Z,2.63
2022-10-15T03:07:44.611Z,2.67
2022-10-15T03:10:47.805Z,2.43
2022-10-15T03:13:50.503Z,2.30
2022-10-15T03:16:53.588Z,2.90
2022-10-15T03:19:57.609Z,2.53
2022-10-15T03:23:01.028Z,2.93
2022-10-15T03:26:04.087Z,2.67
2022-10-15T03:29:06.807Z,2.70
2022-10-15T03:32:09.916Z,2.90
2022-10-15T03:35:13.994Z,3.00
2022-10-15T03:38:17.057Z,3.00
2022-10-15T03:41:19.738Z,2.87
2022-10-15T03:44:22.565Z,2.90
2022-10-15T03:47:25.279Z,2.80
2022-10-15T03:50:29.761Z,2.60
2022-10-15T03:53:32.436Z,2.60
2022-10-15T03:56:35.212Z,2.70
2022-10-15T03:59:39.076Z,2.93
2022-10-15T04:02:42.393Z,2.97
2022-10-15T04:05:54.112Z,3.00
2022-10-15T04:08:58.436Z,2.77
2022-10-15T04:12:01.112Z,2.70
2022-10-15T04:15:04.359Z,2.80
2022-10-15T04:18:06.996Z,2.97
2022-10-15T04:21:12.102Z,2.80
2022-10-15T04:24:15.318Z,2.60
2022-10-15T04:27:18.000Z,2.63
2022-10-15T04:30:21.311Z,2.87
2022-10-15T04:33:23.956Z,2.90
2022-10-15T04:36:28.024Z,3.00
2022-10-15T04:39:30.660Z,3.20
2022-10-15T04:42:33.714Z,3.00
2022-10-15T04:45:36.347Z,2.93
2022-10-15T04:48:43.013Z,2.90
2022-10-15T04:51:47.518Z,2.80
2022-10-15T04:54:50.275Z,2.83
2022-10-15T04:57:52.936Z,2.70
2022-10-15T05:01:00.875Z,2.90
2022-10-15T05:04:04.033Z,2.90
2022-10-15T05:07:08.508Z,2.80
2022-10-15T05:10:11.293Z,2.40
2022-10-15T05:13:14.251Z,2.60
2022-10-15T05:16:19.472Z,2.90
2022-10-15T05:19:22.316Z,3.37
2022-10-15T05:22:27.051Z,3.20
2022-10-15T05:25:29.887Z,2.80
2022-10-15T05:28:33.170Z,3.00
2022-10-15T05:31:36.343Z,2.80
2022-10-15T05:34:39.042Z,3.03
2022-10-15T05:37:43.202Z,4.00
2022-10-15T05:40:50.124Z,4.30
2022-10-15T05:43:54.319Z,4.60
2022-10-15T05:46:56.998Z,3.67
2022-10-15T05:50:00.189Z,4.10
2022-10-15T05:53:04.265Z,4.13
2022-10-15T05:56:08.949Z,4.00
2022-10-15T05:59:11.735Z,4.40
2022-10-15T06:02:16.747Z,3.93
2022-10-15T06:05:19.464Z,5.17
2022-10-15T06:08:23.775Z,5.53
2022-10-15T06:11:26.547Z,4.33
2022-10-15T06:14:30.652Z,4.20
2022-10-15T06:17:33.442Z,4.87
2022-10-15T06:20:37.561Z,4.63
2022-10-15T06:23:41.660Z,4.17
2022-10-15T06:26:44.742Z,4.83
2022-10-15T06:29:47.421Z,3.73
2022-10-15T06:32:51.414Z,3.87
2022-10-15T06:35:54.634Z,3.80
2022-10-15T06:38:58.698Z,3.60
2022-10-15T06:42:02.215Z,3.77
2022-10-15T06:45:05.374Z,3.73
2022-10-15T06:48:09.022Z,4.27
2022-10-15T06:51:12.787Z,4.20
2022-10-15T06:54:16.906Z,4.27
2022-10-15T06:57:20.315Z,5.20
2022-10-15T07:00:23.701Z,5.70
2022-10-15T07:03:26.472Z,5.57
2022-10-15T07:06:29.197Z,5.77
2022-10-15T07:09:34.276Z,5.73
2022-10-15T07:12:37.671Z,6.07
2022-10-15T07:15:40.363Z,6.70
2022-10-15T07:18:43.072Z,6.40
2022-10-15T07:21:46.554Z,6.67
2022-10-15T07:24:50.595Z,6.83
2022-10-15T07:27:53.782Z,6.47
2022-10-15T07:31:00.880Z,7.00
2022-10-15T07:34:03.638Z,6.23
2022-10-15T07:37:06.419Z,6.87
2022-10-15T07:40:11.809Z,6.80
2022-10-15T07:43:15.922Z,6.37
2022-10-15T07:46:19.083Z,7.80
2022-10-15T07:49:21.798Z,6.77
2022-10-15T07:52:24.790Z,6.60
2022-10-15T07:55:29.562Z,6.40
2022-10-15T07:58:34.656Z,6.73
2022-10-15T08:01:39.867Z,7.03
2022-10-15T08:04:42.961Z,7.87
2022-10-15T08:07:45.660Z,8.30
2022-10-15T08:10:50.162Z,7.93
2022-10-15T08:13:54.103Z,7.50
2022-10-15T08:16:57.012Z,7.80
2022-10-15T08:19:59.716Z,7.33
2022-10-15T08:23:03.240Z,7.33
2022-10-15T08:26:07.826Z,7.40
2022-10-15T08:29:11.718Z,7.13
2022-10-15T08:32:14.675Z,7.80
2022-10-15T08:35:17.868Z,8.07
2022-10-15T08:38:20.621Z,8.83
2022-10-15T08:41:30.293Z,10.80
2022-10-15T08:44:39.966Z,9.33
2022-10-15T08:47:47.566Z,8.67
2022-10-15T08:50:59.013Z,8.33
2022-10-15T08:54:04.559Z,8.00
2022-10-15T08:57:21.966Z,7.80
2022-10-15T09:00:27.216Z,6.43
2022-10-15T09:03:38.504Z,6.23
2022-10-15T09:06:43.024Z,6.07
2022-10-15T09:09:50.047Z,5.17
2022-10-15T09:13:02.332Z,5.63
2022-10-15T09:16:12.095Z,4.33
2022-10-15T09:19:18.442Z,5.47
2022-10-15T09:22:26.431Z,3.57
2022-10-15T09:25:35.703Z,4.10
2022-10-15T09:28:48.629Z,4.70
2022-10-15T09:31:59.697Z,3.70
2022-10-15T09:35:17.356Z,3.47
2022-10-15T09:38:28.931Z,3.50
2022-10-15T09:41:45.077Z,2.67
2022-10-15T09:44:49.528Z,2.37
2022-10-15T09:47:52.799Z,1.30
2022-10-15T09:50:59.518Z,1.20
2022-10-15T09:54:10.837Z,0.97
2022-10-15T09:57:16.929Z,0.80
2022-10-15T10:00:21.196Z,0.83
2022-10-15T10:03:26.057Z,0.60
2022-10-15T10:06:28.912Z,0.60
2022-10-15T10:09:35.528Z,0.70
2022-10-15T10:12:38.888Z,0.60
2022-10-15T10:15:44.108Z,0.77
2022-10-15T10:19:03.704Z,0.40
2022-10-15T10:22:16.465Z,0.30
2022-10-15T10:26:09.592Z,0.43
2022-10-15T10:29:33.714Z,0.37
2022-10-15T10:32:39.490Z,0.20
2022-10-15T10:35:46.812Z,0.20
2022-10-15T10:38:59.295Z,0.40
2022-10-15T10:42:05.395Z,0.30
2022-10-15T10:45:18.990Z,0.20
2022-10-15T10:48:26.546Z,0.23
2022-10-15T10:51:31.007Z,0.30
2022-10-15T10:54:35.247Z,0.40
2022-10-15T10:57:45.768Z,0.50
2022-10-15T11:00:50.347Z,0.20
2022-10-15T11:03:54.815Z,0.20
2022-10-15T11:07:04.747Z,0.20
2022-10-15T11:10:15.480Z,0.10
2022-10-15T11:13:41.999Z,0.20
2022-10-15T11:16:54.889Z,0.20
2022-10-15T11:20:28.560Z,0.10
2022-10-15T11:23:51.825Z,0.20
2022-10-15T11:27:10.991Z,0.10
2022-10-15T11:30:31.111Z,0.20
2022-10-15T11:33:57.110Z,0.20
2022-10-15T11:37:16.400Z,0.10
2022-10-15T11:40:22.766Z,0.20
2022-10-15T11:43:49.230Z,0.13
2022-10-15T11:47:04.377Z,0.20
2022-10-15T11:50:20.437Z,0.47
2022-10-15T11:53:57.803Z,0.30
2022-10-15T11:57:03.581Z,0.40
2022-10-15T12:00:17.029Z,0.30
2022-10-15T12:03:24.171Z,0.40
2022-10-15T12:06:31.368Z,0.60
2022-10-15T12:09:40.567Z,0.30
2022-10-15T12:12:52.762Z,0.30
2022-10-15T12:16:07.048Z,0.30
2022-10-15T12:19:17.148Z,0.40
2022-10-15T12:22:34.757Z,0.40
2022-10-15T12:25:46.034Z,0.33
2022-10-15T12:28:51.571Z,0.47
2022-10-15T12:31:57.081Z,0.50
2022-10-15T12:35:02.031Z,0.40
2022-10-15T12:38:23.259Z,0.30
2022-10-15T12:41:39.138Z,0.50
2022-10-15T12:44:41.942Z,0.47
2022-10-15T12:47:49.723Z,0.70
2022-10-15T12:51:39.423Z,0.50
2022-10-15T12:54:43.459Z,0.53
2022-10-15T12:57:55.593Z,0.47
2022-10-15T13:00:58.508Z,1.00
2022-10-15T13:04:02.360Z,0.47
2022-10-15T13:07:06.345Z,0.60
2022-10-15T13:10:21.489Z,2.03
2022-10-15T13:13:29.284Z,0.57
2022-10-15T13:16:32.362Z,1.10
2022-10-15T13:19:39.238Z,0.57
2022-10-15T13:22:42.075Z,0.70
2022-10-15T13:25:44.902Z,0.40
2022-10-15T13:28:50.030Z,0.40
2022-10-15T13:31:55.545Z,0.47
2022-10-15T13:34:58.569Z,0.40
2022-10-15T13:38:01.881Z,0.27
2022-10-15T13:41:04.833Z,0.30
2022-10-15T13:44:21.852Z,0.20
2022-10-15T13:47:29.097Z,0.37
2022-10-15T13:50:34.722Z,3.63
2022-10-15T13:53:41.144Z,2.73
2022-10-15T13:56:49.549Z,2.30
2022-10-15T13:59:54.601Z,1.83
2022-10-15T14:03:25.365Z,0.30
2022-10-15T14:06:30.078Z,0.50
2022-10-15T14:09:34.857Z,2.00
2022-10-15T14:12:37.698Z,1.70
2022-10-15T14:15:44.476Z,0.43
2022-10-15T14:18:50.153Z,3.33
2022-10-15T14:21:52.973Z,1.90
2022-10-15T14:24:57.611Z,18.97
2022-10-15T14:28:00.406Z,4.67
2022-10-15T14:31:06.194Z,0.50
2022-10-15T14:34:29.534Z,2.70
2022-10-15T14:37:40.285Z,1.07
2022-10-15T14:40:57.096Z,3.13
2022-10-15T14:44:19.222Z,0.70
2022-10-15T14:47:26.920Z,0.83
2022-10-15T14:50:32.820Z,1.13
2022-10-15T14:53:39.556Z,0.93
2022-10-15T14:56:42.548Z,1.03
2022-10-15T14:59:45.909Z,0.40
2022-10-15T15:02:50.281Z,0.70
2022-10-15T15:05:54.691Z,0.93
2022-10-15T15:08:57.766Z,0.70
2022-10-15T15:12:01.016Z,2.00
2022-10-15T15:15:03.915Z,0.70
2022-10-15T15:18:10.198Z,1.30
2022-10-15T15:21:16.072Z,0.60
2022-10-15T15:24:18.843Z,1.30
2022-10-15T15:27:27.102Z,0.80
2022-10-15T15:30:32.738Z,0.70
2022-10-15T15:33:37.184Z,1.10
2022-10-15T15:36:39.953Z,1.30
2022-10-15T15:39:42.917Z,1.30
2022-10-15T15:42:46.925Z,1.40
2022-10-15T15:45:49.670Z,1.20
2022-10-15T15:48:53.764Z,1.00
2022-10-15T15:51:56.779Z,1.30
2022-10-15T15:54:59.753Z,4.70
2022-10-15T15:58:02.444Z,0.63
2022-10-15T16:01:05.391Z,0.70
2022-10-15T16:04:09.452Z,0.70
2022-10-15T16:07:13.554Z,1.10
2022-10-15T16:10:16.966Z,0.80
2022-10-15T16:13:19.697Z,0.90
2022-10-15T16:16:22.608Z,0.90
2022-10-15T16:19:26.830Z,0.60
2022-10-15T16:22:29.802Z,0.80
2022-10-15T16:25:32.501Z,4.20
2022-10-15T16:28:35.568Z,0.80
2022-10-15T16:31:38.538Z,0.73
2022-10-15T16:34:42.896Z,0.83
2022-10-15T16:37:46.186Z,0.73
2022-10-15T16:40:48.916Z,1.17
2022-10-15T16:43:51.757Z,0.70
2022-10-15T16:46:54.699Z,0.80
2022-10-15T16:49:59.084Z,2.00
2022-10-15T16:53:02.061Z,0.60
2022-10-15T16:56:07.645Z,0.60
2022-10-15T16:59:10.827Z,0.73
2022-10-15T17:02:13.636Z,1.60
2022-10-15T17:05:17.814Z,1.30
2022-10-15T17:08:22.450Z,0.90
2022-10-15T17:11:27.627Z,1.10
2022-10-15T17:14:30.490Z,1.50
2022-10-15T17:17:33.187Z,3.30
2022-10-15T17:20:44.484Z,1.37
2022-10-15T17:23:47.658Z,0.77
2022-10-15T17:26:50.425Z,1.17
2022-10-15T17:29:53.589Z,4.20
2022-10-15T17:32:56.587Z,1.20
2022-10-15T17:36:04.461Z,1.23
2022-10-15T17:39:07.169Z,0.70
2022-10-15T17:42:10.210Z,0.70
2022-10-15T17:45:13.197Z,0.60
2022-10-15T17:48:16.380Z,0.60
2022-10-15T17:51:22.488Z,0.70
2022-10-15T17:54:25.719Z,2.33
2022-10-15T17:57:29.390Z,8.07
2022-10-15T18:00:32.318Z,8.73
2022-10-15T18:03:35.407Z,1.07
2022-10-15T18:06:39.521Z,20.00
2022-10-15T18:09:42.820Z,1.60
2022-10-15T18:12:45.460Z,3.43
2022-10-15T18:15:49.557Z,5.17
2022-10-15T18:18:53.777Z,2.10
2022-10-15T18:21:58.811Z,4.50
2022-10-15T18:25:02.222Z,4.17
2022-10-15T18:28:05.365Z,1.77
2022-10-15T18:31:11.837Z,3.97
2022-10-15T18:34:15.074Z,0.90
2022-10-15T18:37:19.458Z,2.60
2022-10-15T18:40:22.212Z,1.20
2022-10-15T18:43:25.264Z,1.30
2022-10-15T18:46:28.761Z,3.83
2022-10-15T18:49:31.960Z,1.27
2022-10-15T18:52:39.905Z,0.90
2022-10-15T18:55:43.531Z,5.83
2022-10-15T18:58:46.957Z,3.97
2022-10-15T19:01:50.365Z,3.17
2022-10-15T19:04:53.835Z,4.43
2022-10-15T19:07:58.099Z,1.30
2022-10-15T19:11:06.672Z,1.23
2022-10-15T19:14:10.651Z,0.60
2022-10-15T19:17:13.962Z,0.77
2022-10-15T19:20:17.099Z,0.57
2022-10-15T19:23:21.853Z,0.50
2022-10-15T19:26:25.308Z,0.67
2022-10-15T19:29:31.533Z,0.50
2022-10-15T19:32:37.452Z,1.40
2022-10-15T19:35:41.170Z,1.30
2022-10-15T19:38:45.622Z,0.80
2022-10-15T19:41:49.133Z,0.60
2022-10-15T19:44:52.059Z,0.40
2022-10-15T19:47:58.619Z,0.73
2022-10-15T19:51:06.303Z,1.40
2022-10-15T19:54:10.797Z,0.87
2022-10-15T19:57:14.847Z,0.70
2022-10-15T20:00:18.214Z,1.30
2022-10-15T20:03:22.008Z,1.70
2022-10-15T20:06:24.935Z,1.20
2022-10-15T20:09:29.440Z,1.17
2022-10-15T20:12:32.520Z,0.77
2022-10-15T20:15:35.580Z,0.90
2022-10-15T20:18:38.661Z,0.80
2022-10-15T20:21:42.557Z,0.70
2022-10-15T20:24:46.741Z,1.40
2022-10-15T20:27:49.463Z,0.90
2022-10-15T20:30:55.661Z,0.73
2022-10-15T20:33:58.794Z,0.80
2022-10-15T20:37:02.172Z,0.70
2022-10-15T20:40:07.798Z,0.90
2022-10-15T20:43:10.847Z,1.00
2022-10-15T20:46:17.699Z,1.23
2022-10-15T20:49:22.895Z,0.97
2022-10-15T20:52:26.263Z,1.00
2022-10-15T20:55:30.595Z,1.20
2022-10-15T20:58:33.832Z,0.67
2022-10-15T21:01:37.268Z,0.80
2022-10-15T21:04:41.123Z,0.63
2022-10-15T21:07:44.079Z,0.80
2022-10-15T21:10:48.723Z,0.77
2022-10-15T21:13:52.252Z,0.77
2022-10-15T21:16:55.595Z,0.97
2022-10-15T21:19:58.698Z,1.03
2022-10-15T21:23:01.530Z,0.80
2022-10-15T21:26:07.709Z,0.93
2022-10-15T21:29:15.637Z,0.80
2022-10-15T21:32:18.929Z,0.50
2022-10-15T21:35:21.637Z,0.80
2022-10-15T21:38:24.376Z,0.53
2022-10-15T21:41:30.831Z,0.50
2022-10-15T21:44:34.424Z,0.50
2022-10-15T21:47:37.589Z,0.60
2022-10-15T21:50:40.330Z,0.53
2022-10-15T21:53:44.066Z,0.60
2022-10-15T21:56:48.206Z,0.50
2022-10-15T21:59:51.184Z,0.80
2022-10-15T22:02:54.282Z,0.60
2022-10-15T22:05:59.882Z,0.70
2022-10-15T22:09:04.029Z,0.90
2022-10-15T22:12:08.543Z,0.97
2022-10-15T22:15:11.995Z,0.90
2022-10-15T22:18:14.679Z,0.90
2022-10-15T22:21:19.776Z,0.80
2022-10-15T22:24:22.512Z,0.80
2022-10-15T22:27:27.568Z,0.90
2022-10-15T22:30:30.565Z,0.90
2022-10-15T22:33:35.137Z,0.90
2022-10-15T22:36:38.323Z,0.90
2022-10-15T22:39:41.078Z,0.93
2022-10-15T22:42:46.302Z,1.23
2022-10-15T22:45:49.552Z,0.93
2022-10-15T22:48:53.864Z,0.90
2022-10-15T22:51:57.018Z,0.80
2022-10-15T22:55:00.032Z,0.97
2022-10-15T22:58:04.404Z,0.90
2022-10-15T23:01:08.824Z,0.93
2022-10-15T23:04:13.995Z,1.10
2022-10-15T23:07:17.057Z,1.00
2022-10-15T23:10:19.796Z,1.10
2022-10-15T23:13:24.148Z,1.50
2022-10-15T23:16:30.273Z,1.30
2022-10-15T23:19:33.589Z,1.30
2022-10-15T23:22:36.937Z,1.17
2022-10-15T23:25:40.064Z,1.20
2022-10-15T23:28:46.161Z,1.20
2022-10-15T23:31:49.944Z,1.20
2022-10-15T23:34:53.074Z,1.10
2022-10-15T23:37:56.353Z,1.10
2022-10-15T23:41:03.622Z,1.10
2022-10-15T23:44:08.103Z,1.10
2022-10-15T23:47:10.823Z,1.10
2022-10-15T23:50:13.914Z,1.20
2022-10-15T23:53:16.745Z,1.27
2022-10-15T23:56:20.040Z,1.10
2022-10-15T23:59:24.671Z,1.00
